FR3182 / EI-EPC 7700 Squawk Report (16th of December, 2018)

Aircraft B738 Reg No. EI-EPC Age 7 years old
Model 737 Jet engines 2 First flight 07-03-11
Registered 03-11 Rollout 15-02-11 Delivered 30-03-11
Construction No. 40312 Line No. 3574 Series 8AS
ADSHEX 4CA911 Airline name Ryanair Owner N/A
Airfield based Dublin~Co Dublin~EI First tracked 2017-07-13 00:59:00

Flight history for EI-EPC

Route Flight No Date Playback
Bergamo Orio Al Serio (BGY) - Schonefeld (SXF) FR4731 2019-01-20 09:09:00
Schonefeld (SXF) - Bergamo Orio Al Serio (BGY) FR4732 2019-01-20 07:30:00
Luqa (MLA) - Schonefeld (SXF) FR5229 2019-01-20 05:45:00
Schonefeld (SXF) - Luqa (MLA) FR5228 2019-01-19 19:00:00
Bologna (BLQ) - Schonefeld (SXF) FR137 2019-01-19 15:33:00
Schonefeld (SXF) - Bologna (BLQ) FR136 2019-01-19 12:57:00
Ciampino (CIA) - Schonefeld (SXF) FR135 2019-01-19 10:38:00
Schonefeld (SXF) - Ciampino (CIA) FR134 2019-01-19 07:22:00
Stansted (STN) - Schonefeld (SXF) FR147 2019-01-18 20:46:00
???? N/A 2019-01-18 19:21:00
Makedonia (SKG) - Schonefeld (SXF) FR1147 2019-01-18 16:53:00
Schonefeld (SXF) - Makedonia (SKG) FR1146 2019-01-18 11:24:00
Bergamo Orio Al Serio (BGY) - Schonefeld (SXF) FR4733 2019-01-18 07:25:00
Schonefeld (SXF) - Bergamo Orio Al Serio (BGY) FR4734 2019-01-17 19:21:00
Vilnius Intl (VNO) - Schonefeld (SXF) FR1571 2019-01-17 17:53:00
Schonefeld (SXF) - Vilnius Intl (VNO) FR1570 2019-01-17 13:43:00
Bergamo Orio Al Serio (BGY) - Schonefeld (SXF) FR4731 2019-01-17 09:31:00
Schonefeld (SXF) - Bergamo Orio Al Serio (BGY) FR4732 2019-01-17 07:16:00
Brussels Airport (BRU) - Schonefeld (SXF) FR167 2019-01-17 05:42:00
Schonefeld (SXF) - Brussels Airport (BRU) FR166 2019-01-16 20:06:00
Time Lat Lon Altitude Heading Speed Vertical Rate
2018-12-16 12:10:57 GMT 55.071213 -6.997887 2,200 253 164 -832
2018-12-16 12:10:48 GMT 55.073254 -6.985973 2,350 254 165 -832
2018-12-16 12:10:38 GMT 55.075535 -6.972573 2,500 254 168 -896
2018-12-16 12:10:28 GMT 55.077766 -6.959589 2,650 254 168 -960
2018-12-16 12:09:58 GMT 55.084377 -6.921054 3,075 254 173 -896
2018-12-16 12:09:55 GMT 55.085217 -6.916226 3,175 254 174 -896
2018-12-16 12:09:47 GMT 55.087032 -6.905407 3,275 254 175 -960
2018-12-16 12:09:40 GMT 55.088699 -6.896021 3,400 254 175 -960
2018-12-16 12:09:37 GMT 55.089340 -6.892224 3,450 254 175 -896
2018-12-16 12:09:30 GMT 55.091034 -6.882450 3,550 254 176 -960
2018-12-16 12:09:26 GMT 55.091827 -6.877774 3,625 253 176 -1024
2018-12-16 12:09:20 GMT 55.093414 -6.868798 3,725 253 177 -1024
2018-12-16 12:09:17 GMT 55.094109 -6.864707 3,775 253 177 -960
2018-12-16 12:09:10 GMT 55.095970 -6.854220 3,900 253 179 -896
2018-12-16 12:09:06 GMT 55.096710 -6.850056 3,950 254 180 -896
2018-12-16 12:08:59 GMT 55.098541 -6.839474 4,075 254 182 -896
2018-12-16 12:08:56 GMT 55.099136 -6.835743 4,100 254 184 -896
2018-12-16 12:08:50 GMT 55.100739 -6.826387 4,225 255 186 -960
2018-12-16 12:08:46 GMT 55.101555 -6.821428 4,275 255 187 -1024
2018-12-16 12:08:38 GMT 55.103279 -6.810441 4,400 256 187 -1216
2018-12-16 12:08:35 GMT 55.103943 -6.806030 4,475 256 187 -1280
2018-12-16 12:08:29 GMT 55.105232 -6.796958 4,625 257 188 -1152
2018-12-16 12:08:26 GMT 55.106071 -6.791049 4,675 257 188 -1152
2018-12-16 12:08:18 GMT 55.107605 -6.780099 4,825 257 190 -960
2018-12-16 12:08:15 GMT 55.108212 -6.775568 4,875 256 190 -960
2018-12-16 12:08:09 GMT 55.109528 -6.766932 4,950 255 193 -832
2018-12-16 12:08:04 GMT 55.110672 -6.759742 5,025 253 194 -768
2018-12-16 12:07:58 GMT 55.112637 -6.749268 5,100 251 198 -704
2018-12-16 12:07:54 GMT 55.113556 -6.744717 5,150 250 199 -832
2018-12-16 12:07:47 GMT 55.116165 -6.733973 5,250 245 202 -896
2018-12-16 12:07:44 GMT 55.117199 -6.730208 5,300 244 203 -896
2018-12-16 12:07:39 GMT 55.121761 -6.714894 5,425 243 207 -768
2018-12-16 12:07:34 GMT 55.121761 -6.714894 5,450 242 208 -768
2018-12-16 12:07:28 GMT 55.124405 -6.706346 5,550 243 213 -576
2018-12-16 12:07:25 GMT 55.126324 -6.699912 5,575 244 215 -448
2018-12-16 12:07:17 GMT 55.129951 -6.687345 5,625 243 222 -448
2018-12-16 12:07:13 GMT 55.131180 -6.683242 5,650 243 222 -576
2018-12-16 12:07:08 GMT 55.133835 -6.674194 5,700 243 226 -576
2018-12-16 12:07:04 GMT 55.135391 -6.669024 5,725 243 227 -576
2018-12-16 12:07:00 GMT 55.137909 -6.660542 5,750 243 228 -640
2018-12-16 12:06:57 GMT 55.140335 -6.652222 5,850 243 233 -704
2018-12-16 12:06:54 GMT 55.140335 -6.652222 5,875 243 239 -640
2018-12-16 12:06:44 GMT 55.145733 -6.633911 5,975 243 240 -640
2018-12-16 12:06:37 GMT 55.148994 -6.622758 6,075 243 243 -640
2018-12-16 12:06:33 GMT 55.151138 -6.615385 6,100 244 246 -576
2018-12-16 12:06:27 GMT 55.154160 -6.605030 6,150 243 250 -704
2018-12-16 12:06:23 GMT 55.156174 -6.598259 6,175 243 251 -768
2018-12-16 12:06:17 GMT 55.159836 -6.585819 6,300 243 256 -896
2018-12-16 12:06:13 GMT 55.161888 -6.578813 6,350 243 257 -1216
2018-12-16 12:06:07 GMT 55.165237 -6.567401 6,500 243 258 -1536
2018-12-16 12:06:03 GMT 55.167290 -6.560336 6,600 244 258 -1600
2018-12-16 12:06:00 GMT 55.169243 -6.553678 6,700 244 258 -1600
2018-12-16 12:05:56 GMT 55.171097 -6.547367 6,800 244 257 -1600
2018-12-16 12:05:53 GMT 55.172791 -6.541389 6,900 244 257 -1600
2018-12-16 12:05:47 GMT 55.175900 -6.530623 6,975 244 257 -1600
2018-12-16 12:05:44 GMT 55.177505 -6.525071 7,125 244 256 -1600
2018-12-16 12:05:38 GMT 55.181122 -6.512550 7,325 244 256 -1728
2018-12-16 12:05:34 GMT 55.183163 -6.505488 7,425 244 255 -1856
2018-12-16 12:05:26 GMT 55.187073 -6.491870 7,675 244 253 -2048
2018-12-16 12:05:23 GMT 55.191170 -6.477689 7,825 244 252 -2240
2018-12-16 12:05:19 GMT 55.192612 -6.472695 8,025 244 249 -1984
2018-12-16 12:05:15 GMT 55.192612 -6.472695 8,050 244 249 -1664
2018-12-16 12:05:12 GMT 55.194286 -6.466869 8,150 244 249 -1408
2018-12-16 12:05:08 GMT 55.196568 -6.458962 8,275 244 250 -1408
2018-12-16 12:05:05 GMT 55.197739 -6.455033 8,300 244 250 -1408
2018-12-16 12:05:01 GMT 55.200153 -6.446727 8,425 244 251 -1536
2018-12-16 12:04:55 GMT 55.203186 -6.436211 8,575 243 250 -1472
2018-12-16 12:04:52 GMT 55.204994 -6.430081 8,675 244 251 -1408
2018-12-16 12:04:48 GMT 55.206985 -6.423205 8,775 244 251 -1344
2018-12-16 12:04:45 GMT 55.208580 -6.417763 8,825 244 251 -1344
2018-12-16 12:04:41 GMT 55.210442 -6.411272 8,925 244 251 -1344
2018-12-16 12:04:38 GMT 55.212353 -6.404696 9,000 244 252 -1280
2018-12-16 12:04:35 GMT 55.214027 -6.398954 9,075 244 252 -1216
2018-12-16 12:04:31 GMT 55.215591 -6.393477 9,125 244 253 -1152
2018-12-16 12:04:27 GMT 55.217796 -6.385803 9,225 244 253 -1088
2018-12-16 12:04:24 GMT 55.219162 -6.381037 9,275 244 254 -1024
2018-12-16 12:04:21 GMT 55.220963 -6.374817 9,325 244 254 -1024
2018-12-16 12:04:17 GMT 55.223289 -6.366744 9,400 244 255 -1088
2018-12-16 12:04:14 GMT 55.224701 -6.361892 9,450 244 256 -1152
2018-12-16 12:04:10 GMT 55.226688 -6.354925 9,525 244 256 -1216
2018-12-16 12:04:07 GMT 55.228645 -6.348267 9,600 244 256 -1152
2018-12-16 12:04:04 GMT 55.230240 -6.342666 9,675 244 256 -1152
2018-12-16 12:04:01 GMT 55.231808 -6.337114 9,725 244 257 -1152
2018-12-16 12:03:57 GMT 55.234314 -6.328610 9,825 244 258 -1152
2018-12-16 12:03:53 GMT 55.236237 -6.321905 9,875 244 258 -1152
2018-12-16 12:03:50 GMT 55.237442 -6.317805 9,925 244 258 -1216
2018-12-16 12:03:44 GMT 55.240887 -6.305903 10,100 244 258 -1280
2018-12-16 12:03:41 GMT 55.242920 -6.298882 10,150 244 258 -1216
2018-12-16 12:03:34 GMT 55.246704 -6.285844 10,300 244 258 -1280
2018-12-16 12:03:30 GMT 55.248779 -6.278848 10,400 244 258 -1408
2018-12-16 12:03:26 GMT 55.251038 -6.271029 10,500 244 258 -1408
2018-12-16 12:03:23 GMT 55.252213 -6.266973 10,550 244 257 -1408
2018-12-16 12:03:20 GMT 55.254063 -6.260626 10,625 244 258 -1344
2018-12-16 12:03:14 GMT 55.257507 -6.248724 10,775 244 258 -1408
2018-12-16 12:03:10 GMT 55.259766 -6.240800 10,875 244 259 -1536
2018-12-16 12:03:05 GMT 55.261688 -6.234095 11,000 244 259 -1600
2018-12-16 12:03:02 GMT 55.263382 -6.228117 11,050 244 260 -1472
2018-12-16 12:02:59 GMT 55.264999 -6.222423 11,150 244 260 -1408
2018-12-16 12:02:55 GMT 55.267376 -6.214100 11,250 244 261 -1600
2018-12-16 12:02:52 GMT 55.268784 -6.209214 11,325 244 261 -1600
2018-12-16 12:02:49 GMT 55.270752 -6.202428 11,375 244 262 -1600
2018-12-16 12:02:45 GMT 55.273006 -6.194458 11,525 244 262 -1664
2018-12-16 12:02:42 GMT 55.274460 -6.189503 11,600 244 262 -1728
2018-12-16 12:02:39 GMT 55.275970 -6.184253 11,675 244 262 -1856
2018-12-16 12:02:36 GMT 55.277802 -6.177812 11,725 244 262 -1920
2018-12-16 12:02:32 GMT 55.279991 -6.170321 11,875 244 259 -2176
2018-12-16 12:02:28 GMT 55.281830 -6.163896 12,075 244 259 -1536
2018-12-16 12:02:24 GMT 55.284275 -6.155257 12,175 244 260 -704
2018-12-16 12:02:21 GMT 55.285809 -6.150013 12,200 244 262 -768
2018-12-16 12:02:17 GMT 55.287766 -6.143105 12,250 244 264 -896
2018-12-16 12:02:14 GMT 55.289719 -6.136280 12,325 244 266 -1152
2018-12-16 12:02:10 GMT 55.292141 -6.127791 12,400 244 266 -1152
2018-12-16 12:02:07 GMT 55.293137 -6.124312 12,450 244 266 -1216
2018-12-16 12:02:04 GMT 55.294979 -6.117720 12,525 244 266 -1152
2018-12-16 12:02:01 GMT 55.298656 -6.104570 12,600 244 266 -1216
2018-12-16 12:01:58 GMT 55.298656 -6.104570 12,650 244 266 -1216
2018-12-16 12:01:51 GMT 55.302017 -6.092646 12,875 244 266 -1216
2018-12-16 12:01:48 GMT 55.303528 -6.087153 12,850 244 266 -1216
2018-12-16 12:01:43 GMT 55.306526 -6.076688 12,950 244 268 -1152
2018-12-16 12:01:39 GMT 55.308838 -6.068573 13,025 244 269 -1152
2018-12-16 12:01:31 GMT 55.312950 -6.054133 13,200 244 270 -1216
2018-12-16 12:01:28 GMT 55.314533 -6.048639 13,250 244 271 -1216
2018-12-16 12:01:21 GMT 55.318817 -6.033741 13,425 244 273 -1216
2018-12-16 12:01:18 GMT 55.320282 -6.028586 13,450 244 273 -1280
2018-12-16 12:01:15 GMT 55.322212 -6.021839 13,525 244 274 -1280
2018-12-16 12:01:12 GMT 55.323841 -6.016263 13,600 244 274 -1408
2018-12-16 12:01:08 GMT 55.326233 -6.007906 13,700 244 275 -1344
2018-12-16 12:01:01 GMT 55.330811 -5.991992 13,900 244 276 -1408
2018-12-16 12:00:58 GMT 55.331848 -5.988381 13,950 244 277 -1408
2018-12-16 12:00:52 GMT 55.335995 -5.973899 14,100 244 277 -1280
2018-12-16 12:00:49 GMT 55.337158 -5.969904 14,150 244 279 -1280
2018-12-16 12:00:42 GMT 55.343079 -5.949258 14,500 244 279 -1344
2018-12-16 12:00:39 GMT 55.343079 -5.949258 14,425 244 280 -1344
2018-12-16 12:00:36 GMT 55.344269 -5.945219 14,450 244 281 -1344
2018-12-16 12:00:33 GMT 55.346329 -5.937868 14,675 244 282 -1408
2018-12-16 12:00:30 GMT 55.348560 -5.930037 14,625 244 283 -1408
2018-12-16 12:00:26 GMT 55.350193 -5.924294 14,675 244 284 -1408
2018-12-16 12:00:21 GMT 55.353790 -5.911452 14,850 244 286 -1408
2018-12-16 12:00:18 GMT 55.355667 -5.904828 14,925 244 287 -1408
2018-12-16 12:00:14 GMT 55.359650 -5.890530 15,050 244 288 -1472
2018-12-16 12:00:10 GMT 55.359650 -5.890530 15,100 244 288 -1472
2018-12-16 12:00:07 GMT 55.363087 -5.878351 15,200 244 291 -1472
2018-12-16 12:00:04 GMT 55.363087 -5.878351 15,275 244 292 -1408
2018-12-16 12:00:00 GMT 55.367523 -5.862660 15,400 244 294 -1408
2018-12-16 11:59:57 GMT 55.370178 -5.853209 15,450 244 294 -1408
2018-12-16 11:59:53 GMT 55.370178 -5.853209 15,525 244 295 -1408
2018-12-16 11:59:49 GMT 55.372257 -5.845892 15,600 244 296 -1408
2018-12-16 11:59:46 GMT 55.373932 -5.839899 15,675 244 297 -1408
2018-12-16 11:59:42 GMT 55.376999 -5.828974 15,850 244 300 -1408
2018-12-16 11:59:37 GMT 55.380203 -5.817665 15,925 244 302 -1408
2018-12-16 11:59:34 GMT 55.382034 -5.811019 16,000 244 303 -1408
2018-12-16 11:59:31 GMT 55.383289 -5.806607 16,025 244 303 -1408
2018-12-16 11:59:28 GMT 55.385376 -5.799166 16,125 244 305 -1408
2018-12-16 11:59:22 GMT 55.390915 -5.779536 16,325 244 307 -1344
2018-12-16 11:59:19 GMT 55.390915 -5.779536 16,350 244 307 -1344
2018-12-16 11:59:16 GMT 55.393299 -5.771068 16,400 244 307 -1344
2018-12-16 11:59:13 GMT 55.394943 -5.765237 16,500 244 307 -1344
2018-12-16 11:59:09 GMT 55.397629 -5.755837 16,575 244 308 -1280
2018-12-16 11:59:06 GMT 55.399750 -5.748273 16,675 244 308 -1280
2018-12-16 11:59:03 GMT 55.401535 -5.741972 16,725 244 307 -1280
2018-12-16 11:59:00 GMT 55.405682 -5.727289 16,825 244 306 -1280
2018-12-16 11:58:56 GMT 55.405682 -5.727289 16,875 244 306 -1280
2018-12-16 11:58:53 GMT 55.407452 -5.721047 16,975 244 306 -1280
2018-12-16 11:58:50 GMT 55.409172 -5.714805 17,000 244 306 -1280
2018-12-16 11:58:46 GMT 55.411968 -5.704901 17,100 244 306 -1280
2018-12-16 11:58:40 GMT 55.415588 -5.691968 17,200 244 306 -1344
2018-12-16 11:58:37 GMT 55.417461 -5.685258 17,300 244 307 -1472
2018-12-16 11:58:34 GMT 55.419228 -5.679016 17,375 244 307 -1536
2018-12-16 11:58:31 GMT 55.421585 -5.670480 17,500 244 306 -1536
2018-12-16 11:58:28 GMT 55.423096 -5.665149 17,675 244 306 -1536
2018-12-16 11:58:24 GMT 55.425110 -5.657959 17,650 244 306 -1536
2018-12-16 11:58:20 GMT 55.428261 -5.646806 17,825 244 308 -1536
2018-12-16 11:58:17 GMT 55.430145 -5.640106 17,925 244 308 -1536
2018-12-16 11:58:13 GMT 55.432262 -5.632491 17,950 244 308 -1536
2018-12-16 11:58:10 GMT 55.435059 -5.622670 18,050 244 308 -1536
2018-12-16 11:58:07 GMT 55.436081 -5.619091 18,125 244 309 -1472
2018-12-16 11:58:04 GMT 55.438084 -5.611850 18,200 244 309 -1472
2018-12-16 11:58:01 GMT 55.440132 -5.604692 18,275 244 309 -1472
2018-12-16 11:57:57 GMT 55.442505 -5.596161 18,425 244 306 -1472
2018-12-16 11:57:54 GMT 55.444412 -5.589466 18,450 244 308 -1472
2018-12-16 11:57:51 GMT 55.446533 -5.581804 18,525 244 306 -1472
2018-12-16 11:57:48 GMT 55.448185 -5.575991 18,625 244 306 -1472
2018-12-16 11:57:45 GMT 55.450333 -5.568404 18,700 244 305 -1472
2018-12-16 11:57:39 GMT 55.453911 -5.555563 18,850 244 304 -1536
2018-12-16 11:57:35 GMT 55.456425 -5.546722 18,950 244 303 -1536
2018-12-16 11:57:29 GMT 55.459869 -5.534277 19,075 244 302 -1536
2018-12-16 11:57:26 GMT 55.461590 -5.528097 19,200 245 303 -1536
2018-12-16 11:57:23 GMT 55.464291 -5.518312 19,225 245 303 -1536
2018-12-16 11:57:19 GMT 55.466759 -5.509472 19,375 245 306 -1216
2018-12-16 11:57:16 GMT 55.468246 -5.504065 19,425 245 307 -1216
2018-12-16 11:57:13 GMT 55.469738 -5.498657 19,475 245 309 -1344
2018-12-16 11:57:10 GMT 55.474442 -5.481405 19,625 245 310 -1792
2018-12-16 11:57:06 GMT 55.474442 -5.481405 19,675 245 310 -1792
2018-12-16 11:57:02 GMT 55.478851 -5.465449 19,875 245 312 -1600
2018-12-16 11:56:59 GMT 55.478851 -5.465449 19,925 245 313 -1664
2018-12-16 11:56:56 GMT 55.481003 -5.457630 20,000 245 313 -1728
2018-12-16 11:56:53 GMT 55.482651 -5.451716 20,075 245 314 -1792
2018-12-16 11:56:50 GMT 55.486359 -5.438318 20,200 244 315 -1856
2018-12-16 11:56:44 GMT 55.488007 -5.432323 20,350 244 316 -1792
2018-12-16 11:56:41 GMT 55.490173 -5.424500 20,450 245 317 -1792
2018-12-16 11:56:37 GMT 55.492355 -5.416593 20,600 245 317 -1856
2018-12-16 11:56:34 GMT 55.494831 -5.407763 20,675 244 318 -1984
2018-12-16 11:56:31 GMT 55.496365 -5.402184 20,775 244 319 -2112
2018-12-16 11:56:28 GMT 55.498413 -5.394716 20,950 244 319 -1984
2018-12-16 11:56:24 GMT 55.503071 -5.377893 21,125 244 319 -1792
2018-12-16 11:56:21 GMT 55.503071 -5.377893 21,150 244 319 -1728
2018-12-16 11:56:17 GMT 55.505264 -5.369984 21,275 244 320 -1920
2018-12-16 11:56:14 GMT 55.507214 -5.362959 21,375 244 320 -2176
2018-12-16 11:56:11 GMT 55.509819 -5.353603 21,525 244 319 -3072
2018-12-16 11:56:06 GMT 55.512657 -5.343304 21,800 244 317 -3520
2018-12-16 11:56:03 GMT 55.514477 -5.336866 21,900 244 316 -3456
2018-12-16 11:56:00 GMT 55.516663 -5.329035 22,025 244 313 -3328
2018-12-16 11:55:56 GMT 55.519318 -5.319443 22,375 244 311 -3008
2018-12-16 11:55:52 GMT 55.521698 -5.310808 22,575 244 310 -3008
2018-12-16 11:55:49 GMT 55.523876 -5.303049 22,725 244 309 -3328
2018-12-16 11:55:46 GMT 55.525879 -5.295839 22,850 245 301 -1344
2018-12-16 11:55:43 GMT 55.529205 -5.283758 23,300 244 304 -3456
2018-12-16 11:55:40 GMT 55.529205 -5.283758 23,650 245 301 -2560
2018-12-16 11:55:37 GMT 55.530945 -5.277599 23,500 244 302 -3072
2018-12-16 11:55:34 GMT 55.533001 -5.270004 23,675 245 301 -2368
2018-12-16 11:55:31 GMT 55.534725 -5.263824 23,800 245 301 -1792
2018-12-16 11:55:28 GMT 55.536530 -5.257291 23,925 245 301 -896
2018-12-16 11:55:25 GMT 55.538956 -5.248469 23,975 245 301 -320
2018-12-16 11:55:22 GMT 55.540146 -5.244057 23,975 245 301 -256
2018-12-16 11:55:19 GMT 55.541710 -5.238333 24,000 245 301 -64
2018-12-16 11:55:16 GMT 55.543533 -5.231656 24,000 245 301 -64
2018-12-16 11:55:13 GMT 55.546188 -5.221918 24,000 245 301 -64
2018-12-16 11:55:10 GMT 55.547527 -5.217133 24,000 245 301 -64
2018-12-16 11:55:07 GMT 55.549576 -5.209600 24,000 245 301 -64
2018-12-16 11:55:03 GMT 55.551624 -5.202112 24,000 245 301 -64
2018-12-16 11:54:59 GMT 55.554153 -5.192871 24,000 245 300 -64
2018-12-16 11:54:56 GMT 55.555847 -5.186629 24,025 245 299 0
2018-12-16 11:54:52 GMT 55.558273 -5.177890 24,025 245 299 0
2018-12-16 11:54:49 GMT 55.559692 -5.172646 24,025 245 298 -64
2018-12-16 11:54:46 GMT 55.562073 -5.163824 24,025 245 294 64
2018-12-16 11:54:42 GMT 55.564381 -5.155592 24,025 245 296 0
2018-12-16 11:54:39 GMT 55.565918 -5.149925 24,025 245 294 64
2018-12-16 11:54:36 GMT 55.567684 -5.143490 24,025 244 293 64
2018-12-16 11:54:32 GMT 55.569946 -5.135276 24,025 245 292 64
2018-12-16 11:54:29 GMT 55.571869 -5.128451 24,025 245 292 0
2018-12-16 11:54:26 GMT 55.573746 -5.121543 24,000 244 291 64
2018-12-16 11:54:22 GMT 55.576202 -5.112591 24,000 244 291 64
2018-12-16 11:54:19 GMT 55.577881 -5.106583 24,000 244 291 64
2018-12-16 11:54:16 GMT 55.579510 -5.100574 24,000 245 292 128
2018-12-16 11:54:12 GMT 55.581757 -5.092496 23,975 245 293 128
2018-12-16 11:54:09 GMT 55.583862 -5.084756 23,975 245 293 128
2018-12-16 11:54:05 GMT 55.586472 -5.075267 23,975 245 294 128
2018-12-16 11:54:00 GMT 55.591053 -5.058432 23,975 245 296 0
2018-12-16 11:53:57 GMT 55.591053 -5.058432 23,975 245 296 0
2018-12-16 11:53:53 GMT 55.593426 -5.049677 23,975 245 296 0
2018-12-16 11:53:49 GMT 55.595444 -5.042308 23,975 245 297 0
2018-12-16 11:53:46 GMT 55.597366 -5.035317 23,975 245 297 -128
2018-12-16 11:53:42 GMT 55.600132 -5.025215 24,000 245 298 -64
2018-12-16 11:53:39 GMT 55.601440 -5.020419 24,000 245 298 -64
2018-12-16 11:53:36 GMT 55.603668 -5.012083 24,000 245 297 -64
2018-12-16 11:53:33 GMT 55.605469 -5.005521 24,000 245 297 -64
2018-12-16 11:53:30 GMT 55.606888 -5.000277 24,000 245 297 -64
2018-12-16 11:53:24 GMT 55.610371 -4.987535 24,000 245 296 0
2018-12-16 11:53:21 GMT 55.612381 -4.980136 24,000 245 296 -64
2018-12-16 11:53:18 GMT 55.613911 -4.974489 24,025 245 296 0
2018-12-16 11:53:15 GMT 55.615677 -4.967901 24,025 245 296 0
2018-12-16 11:53:11 GMT 55.618057 -4.959245 24,025 245 296 0
2018-12-16 11:53:08 GMT 55.620621 -4.949674 24,000 245 295 0
2018-12-16 11:53:04 GMT 55.622269 -4.943598 24,000 245 295 0
2018-12-16 11:53:00 GMT 55.624523 -4.935350 24,000 245 295 0
2018-12-16 11:52:57 GMT 55.626526 -4.927951 24,000 245 295 0
2018-12-16 11:52:54 GMT 55.628174 -4.921875 24,000 245 295 64
2018-12-16 11:52:51 GMT 55.630508 -4.913219 24,000 245 295 64
2018-12-16 11:52:48 GMT 55.631367 -4.910202 24,000 245 295 64
2018-12-16 11:52:42 GMT 55.634766 -4.897655 24,000 245 295 64
2018-12-16 11:52:39 GMT 55.636871 -4.889832 24,000 245 295 64
2018-12-16 11:52:36 GMT 55.638443 -4.884195 24,000 245 295 64
2018-12-16 11:52:33 GMT 55.640587 -4.876385 24,000 245 295 64
2018-12-16 11:52:29 GMT 55.642960 -4.867630 24,000 245 296 64
2018-12-16 11:52:26 GMT 55.644356 -4.862394 23,975 245 297 64
2018-12-16 11:52:20 GMT 55.648403 -4.847546 23,975 245 298 0
2018-12-16 11:52:16 GMT 55.650467 -4.840060 23,975 245 299 -64
2018-12-16 11:52:12 GMT 55.653015 -4.830809 24,000 245 300 -64
2018-12-16 11:52:08 GMT 55.655388 -4.821968 24,000 245 300 0
2018-12-16 11:52:05 GMT 55.657345 -4.814930 24,000 245 300 -64
2018-12-16 11:52:02 GMT 55.660812 -4.802024 24,000 245 300 -128
2018-12-16 11:51:59 GMT 55.662605 -4.795446 24,025 245 300 -128
2018-12-16 11:51:56 GMT 55.662605 -4.795446 24,025 245 300 -64
2018-12-16 11:51:53 GMT 55.664467 -4.788322 24,025 245 299 64
2018-12-16 11:51:50 GMT 55.666374 -4.781284 24,025 245 299 0
2018-12-16 11:51:47 GMT 55.668003 -4.775105 24,025 245 299 64
2018-12-16 11:51:44 GMT 55.669556 -4.769315 24,000 245 299 64
2018-12-16 11:51:38 GMT 55.673218 -4.755621 24,000 245 299 128
2018-12-16 11:51:35 GMT 55.675186 -4.748091 24,000 245 299 128
2018-12-16 11:51:32 GMT 55.676476 -4.743261 24,000 245 301 0
2018-12-16 11:51:29 GMT 55.678619 -4.735279 24,000 245 300 0
2018-12-16 11:51:25 GMT 55.680992 -4.726353 24,000 245 300 0
2018-12-16 11:51:22 GMT 55.683086 -4.718370 24,000 245 300 0
2018-12-16 11:51:19 GMT 55.684387 -4.713468 24,000 245 300 0
2018-12-16 11:51:16 GMT 55.686310 -4.706393 24,000 245 301 0
2018-12-16 11:51:12 GMT 55.688644 -4.697488 24,000 245 300 -128
2018-12-16 11:51:09 GMT 55.690441 -4.690819 24,000 245 300 -128
2018-12-16 11:51:06 GMT 55.692585 -4.682751 24,000 245 300 -128
2018-12-16 11:51:03 GMT 55.693981 -4.677429 24,025 245 299 0
2018-12-16 11:51:00 GMT 55.695656 -4.671249 23,775 245 299 0
2018-12-16 11:50:57 GMT 55.697750 -4.663267 24,025 245 299 -64
2018-12-16 11:50:54 GMT 55.699196 -4.657946 24,025 245 298 0
2018-12-16 11:50:51 GMT 55.701187 -4.650380 24,025 245 298 0
2018-12-16 11:50:47 GMT 55.703384 -4.642067 24,025 245 297 64
2018-12-16 11:50:44 GMT 55.705059 -4.635887 24,025 245 297 64
2018-12-16 11:50:41 GMT 55.706688 -4.629707 24,025 245 296 64
2018-12-16 11:50:38 GMT 55.708782 -4.621811 24,025 245 296 64
2018-12-16 11:50:35 GMT 55.710983 -4.613509 24,000 245 296 64
2018-12-16 11:50:31 GMT 55.712402 -4.608265 24,000 245 296 64
2018-12-16 11:50:27 GMT 55.714603 -4.599924 24,000 245 296 64
2018-12-16 11:50:24 GMT 55.716698 -4.592113 24,000 245 296 128
2018-12-16 11:50:21 GMT 55.718327 -4.585934 24,000 245 297 128
2018-12-16 11:50:18 GMT 55.721924 -4.572310 23,975 245 297 128
2018-12-16 11:50:11 GMT 55.724380 -4.563017 23,975 246 298 64
2018-12-16 11:50:07 GMT 55.726940 -4.553232 23,975 245 300 -128
2018-12-16 11:50:04 GMT 55.728802 -4.546194 23,975 245 300 -128
2018-12-16 11:50:00 GMT 55.731033 -4.537686 24,000 246 301 -64
2018-12-16 11:49:57 GMT 55.732407 -4.532360 24,000 246 301 -64
2018-12-16 11:49:54 GMT 55.733967 -4.526539 24,000 246 301 -64
2018-12-16 11:49:51 GMT 55.735832 -4.519415 24,000 246 301 -128
2018-12-16 11:49:48 GMT 55.738159 -4.510489 24,025 246 301 64
2018-12-16 11:49:45 GMT 55.739685 -4.504644 23,975 245 300 896
2018-12-16 11:49:42 GMT 55.741104 -4.499318 23,975 245 300 1024
2018-12-16 11:49:39 GMT 55.742752 -4.493075 23,975 245 300 896
2018-12-16 11:49:36 GMT 55.744953 -4.484653 23,875 245 300 1088
2018-12-16 11:49:33 GMT 55.746819 -4.477444 23,775 245 299 1024
2018-12-16 11:49:30 GMT 55.748493 -4.471264 23,775 245 300 1024
2018-12-16 11:49:27 GMT 55.750214 -4.464611 23,650 245 299 1024
2018-12-16 11:49:24 GMT 55.751862 -4.458368 23,675 246 298 960
2018-12-16 11:49:20 GMT 55.754311 -4.449034 23,550 246 298 960
2018-12-16 11:49:16 GMT 55.756302 -4.441473 23,550 246 298 832
2018-12-16 11:49:13 GMT 55.758038 -4.434872 23,500 246 298 768
2018-12-16 11:49:10 GMT 55.760365 -4.425945 23,450 245 299 832
2018-12-16 11:49:07 GMT 55.761887 -4.420166 23,400 245 300 896
2018-12-16 11:49:04 GMT 55.763622 -4.413500 23,350 246 299 960
2018-12-16 11:49:00 GMT 55.765484 -4.406376 23,300 246 299 960
2018-12-16 11:48:57 GMT 55.767578 -4.398394 23,175 245 302 1216
2018-12-16 11:48:54 GMT 55.769577 -4.390786 23,125 245 302 1216
2018-12-16 11:48:51 GMT 55.771118 -4.384918 23,100 245 303 1216
2018-12-16 11:48:47 GMT 55.773651 -4.375472 23,025 246 305 1344
2018-12-16 11:48:44 GMT 55.775299 -4.369146 22,950 246 306 1408
2018-12-16 11:48:41 GMT 55.777077 -4.362259 22,800 245 310 1792
2018-12-16 11:48:37 GMT 55.780106 -4.350836 22,700 245 312 2176
2018-12-16 11:48:34 GMT 55.781342 -4.346175 22,575 245 313 2240
2018-12-16 11:48:31 GMT 55.782940 -4.340115 22,525 246 317 2176
2018-12-16 11:48:28 GMT 55.785049 -4.332192 22,425 246 315 2112
2018-12-16 11:48:25 GMT 55.786854 -4.325180 22,250 246 316 2176
2018-12-16 11:48:19 GMT 55.790176 -4.312467 22,125 246 317 2048
2018-12-16 11:48:16 GMT 55.792019 -4.305353 22,050 246 317 1984
2018-12-16 11:48:13 GMT 55.794441 -4.295912 21,500 246 319 2112
2018-12-16 11:48:10 GMT 55.796162 -4.289303 21,550 245 323 2944
2018-12-16 11:48:05 GMT 55.799240 -4.277344 21,575 245 323 2688
2018-12-16 11:48:02 GMT 55.800911 -4.271107 21,100 245 323 2944
2018-12-16 11:47:58 GMT 55.805428 -4.253769 21,150 246 324 3520
2018-12-16 11:47:52 GMT 55.807472 -4.246044 20,850 246 326 3520
2018-12-16 11:47:47 GMT 55.810780 -4.233427 20,525 246 327 3584
2018-12-16 11:47:44 GMT 55.812927 -4.225075 20,325 246 328 3584
2018-12-16 11:47:41 GMT 55.814438 -4.219249 20,225 246 328 3584
2018-12-16 11:47:38 GMT 55.815948 -4.213340 20,075 246 328 3520
2018-12-16 11:47:35 GMT 55.818367 -4.203987 19,700 246 331 3776
2018-12-16 11:47:32 GMT 55.819672 -4.199095 18,650 246 331 3840
2018-12-16 11:47:29 GMT 55.821579 -4.191700 19,450 246 332 3904
2018-12-16 11:47:26 GMT 55.824001 -4.182272 19,150 246 334 3776
2018-12-16 11:47:23 GMT 55.825817 -4.175320 19,000 246 334 3776
2018-12-16 11:47:17 GMT 55.830048 -4.158825 18,650 246 336 3136
2018-12-16 11:47:14 GMT 55.831493 -4.153261 18,525 246 336 2816
2018-12-16 11:47:11 GMT 55.833939 -4.143760 18,400 246 336 2624
2018-12-16 11:47:06 GMT 55.836708 -4.133177 18,100 246 335 2624
2018-12-16 11:47:02 GMT 55.839550 -4.122276 17,875 247 334 2944
2018-12-16 11:46:59 GMT 55.841270 -4.115238 17,775 248 334 2880
2018-12-16 11:46:56 GMT 55.842590 -4.109636 17,650 249 334 2816
2018-12-16 11:46:53 GMT 55.844578 -4.099874 17,400 256 333 2496
2018-12-16 11:46:50 GMT 55.845787 -4.092493 17,275 258 333 2560
2018-12-16 11:46:47 GMT 55.847229 -4.080734 17,150 260 329 2816
2018-12-16 11:46:41 GMT 55.848438 -4.068975 16,875 260 332 2816
2018-12-16 11:46:38 GMT 55.849274 -4.060946 16,800 260 331 2752
2018-12-16 11:46:35 GMT 55.850235 -4.051292 16,625 260 330 2752
2018-12-16 11:46:32 GMT 55.851048 -4.043312 16,525 260 329 2816
2018-12-16 11:46:29 GMT 55.852753 -4.026822 16,275 260 327 2752
2018-12-16 11:46:22 GMT 55.853851 -4.016252 16,025 260 327 2688
2018-12-16 11:46:19 GMT 55.854538 -4.009323 15,775 260 326 2816
2018-12-16 11:46:15 GMT 55.855610 -3.998852 15,650 260 325 3008
2018-12-16 11:46:12 GMT 55.856323 -3.991949 15,450 260 325 2880
2018-12-16 11:46:09 GMT 55.857285 -3.982544 15,275 260 324 2816
2018-12-16 11:46:05 GMT 55.858498 -3.970528 15,100 260 321 3264
2018-12-16 11:46:00 GMT 55.859566 -3.960056 14,725 260 321 3264
2018-12-16 11:45:57 GMT 55.860260 -3.953330 14,725 260 321 3264
2018-12-16 11:45:54 GMT 55.861404 -3.941928 14,525 260 319 3328
2018-12-16 11:45:51 GMT 55.862045 -3.935686 14,425 260 320 3264
2018-12-16 11:45:48 GMT 55.863243 -3.923836 14,050 260 319 3264
2018-12-16 11:45:43 GMT 55.863922 -3.917125 13,550 260 319 3200
2018-12-16 11:45:40 GMT 55.865433 -3.902292 13,225 260 317 3136
2018-12-16 11:45:33 GMT 55.866669 -3.890492 13,325 260 315 3136
2018-12-16 11:45:30 GMT 55.867493 -3.882335 13,225 260 315 3072
2018-12-16 11:45:27 GMT 55.868271 -3.874741 12,950 260 313 3008
2018-12-16 11:45:24 GMT 55.869141 -3.866106 12,900 260 312 3072
2018-12-16 11:45:20 GMT 55.870132 -3.856544 12,700 260 310 3072
2018-12-16 11:45:17 GMT 55.870880 -3.848960 12,550 260 309 3072
2018-12-16 11:45:12 GMT 55.872181 -3.836460 12,325 260 309 3008
2018-12-16 11:45:09 GMT 55.872974 -3.828478 12,250 260 308 3008
2018-12-16 11:45:03 GMT 55.874451 -3.814087 11,675 260 304 3328
2018-12-16 11:44:59 GMT 55.875301 -3.805647 11,675 260 305 3328
2018-12-16 11:44:53 GMT 55.876976 -3.788910 10,975 260 303 3712
2018-12-16 11:44:49 GMT 55.877930 -3.779547 10,950 260 303 3776
2018-12-16 11:44:45 GMT 55.878799 -3.770724 10,700 260 303 3712
2018-12-16 11:44:42 GMT 55.880264 -3.755909 10,450 260 303 3712
2018-12-16 11:44:39 GMT 55.880264 -3.755909 10,325 260 303 3712
2018-12-16 11:44:32 GMT 55.882004 -3.738785 9,800 260 302 3584
2018-12-16 11:44:29 GMT 55.882736 -3.731357 9,650 261 302 3520
2018-12-16 11:44:26 GMT 55.883698 -3.721619 9,450 261 301 3584
2018-12-16 11:44:22 GMT 55.884426 -3.714237 9,175 261 300 3712
2018-12-16 11:44:19 GMT 55.885254 -3.705971 9,050 261 300 3776
2018-12-16 11:44:09 GMT 55.887825 -3.679304 8,325 261 298 3904
2018-12-16 11:44:02 GMT 55.889420 -3.663358 7,900 261 297 3520
2018-12-16 11:43:58 GMT 55.890106 -3.656130 7,725 261 297 3392
2018-12-16 11:43:49 GMT 55.892292 -3.634157 7,175 260 293 3840
2018-12-16 11:43:41 GMT 55.894226 -3.614752 6,575 260 291 3648
2018-12-16 11:43:38 GMT 55.894867 -3.608093 6,450 261 290 3456
2018-12-16 11:43:30 GMT 55.897411 -3.582401 6,000 260 284 1344
2018-12-16 11:43:20 GMT 55.899628 -3.560736 5,825 260 263 1152
2018-12-16 11:43:17 GMT 55.899628 -3.560736 5,775 260 263 1152
2018-12-16 11:43:08 GMT 55.901505 -3.541676 5,350 261 245 2432
2018-12-16 11:43:04 GMT 55.902348 -3.532534 5,350 261 245 2432
2018-12-16 11:42:59 GMT 55.903374 -3.522406 5,075 258 238 3008
2018-12-16 11:42:48 GMT 55.906586 -3.502724 4,350 242 220 1664
2018-12-16 11:42:36 GMT 55.911705 -3.483782 4,125 240 217 1728
2018-12-16 11:42:26 GMT 55.916931 -3.468184 3,800 240 194 3136
2018-12-16 11:42:16 GMT 55.921326 -3.454701 3,350 240 193 3072
2018-12-16 11:42:08 GMT 55.925159 -3.443098 2,850 240 187 2048
2018-12-16 11:41:59 GMT 55.928558 -3.432978 2,675 238 168 896
2018-12-16 11:41:56 GMT 55.930000 -3.428936 2,625 238 166 832
2018-12-16 11:41:46 GMT 55.934097 -3.417996 2,425 236 147 1856
2018-12-16 11:41:37 GMT 55.937447 -3.409281 1,775 238 139 4032
2018-12-16 11:41:34 GMT 55.938629 -3.406011 1,775 238 139 4032
2018-12-16 11:41:25 GMT 55.941650 -3.397106 1,150 239 147 4096
2018-12-16 11:41:12 GMT 55.946617 -3.382502 500 240 151 1472
2018-12-16 11:40:59 GMT 55.950272 -3.371687 0 239 92
2018-12-16 11:40:50 GMT 55.951778 -3.367268 0 239 52
2018-12-16 11:40:45 GMT 55.952347 -3.365571 0 239 21
2018-12-16 11:40:31 GMT 55.952660 -3.364480 0 281 10
2018-12-16 11:40:23 GMT 55.952370 -3.363962 0 329 15

Making use of Plane Finder data

You are free to use the raw flight data, aircraft information and images provided in this report for your own purposes provided the data is correctly attributed to Plane Finder. We ask that you please credit Plane Finder and link to planefinder.net in close proximity to the content.

Optionally one of the following logos (no smaller then 150x24px) can be used and must link to planefinder.net

Embedding the Plane Finder map

You are welcome to embed the Plane Finder playback map on your website to offer visitors a more interactive experience. We suggest using the following HTML code:

<iframe src="//planefinder.net/data/report/FR3182-EI-EPC-7700-squawk-2018-12-16/map" width="800" height="600" seamless="seamless"></iframe>

Where our data comes from

Plane Finder has a global network of data feeds and antenna radars that receive data broadcast directly from aircraft. The primary technologies used are ADS-B and MLAT. We also show feeds from the FAA and a FLARM glider feed.

Click here to find out more about the Plane Finder network.

How we collect our data